Ital Oriente — A8LN2 — position and weather

sailwx.info

Track history (hours):
 
Tides and Currents Weather Stations Pressure Air Temp Water Temp Dewpoint Dewpoint Depression Visibility Wind Speed Wind Dir Waves Ship Positions

Ital Oriente

Last reported at 2015-May-23 07:06 UTC. Time now 2015-May-23 08:46 UTC.
Position N 37°46' E 024°21'.

Length 222 m; draft 7.5 m.

Type: Cargo ship. MMSI: 636091278.

Date/timePositionNaut miles runAvg speedWind from/ knotsBaromVisibWave heightAir tempDewpointWater temp
2015-May-23 07:06N 37°46' E 024°21'1417.1
2015-May-23 06:18N 37°37' E 024°09'1216.1
2015-May-23 05:33N 37°36' E 023°53'1615.9
2015-May-23 04:34N 37°46' E 023°38'1211.6
2015-May-23 03:34N 37°57' E 023°35'0 0.0
2015-May-23 02:32N 37°57' E 023°35'0 0.0
2015-May-23 01:32N 37°57' E 023°35'0 0.0
2015-May-23 00:32N 37°57' E 023°35'0 0.0
2015-May-22 23:32N 37°57' E 023°35'0 0.0
2015-May-22 22:32N 37°57' E 023°35'0 0.0
2015-May-22 21:29N 37°57' E 023°35'0 0.0
2015-May-22 20:32N 37°57' E 023°35'0 0.0
2015-May-22 19:32N 37°57' E 023°35'0 0.0
2015-May-22 18:32N 37°57' E 023°35'0 0.0
2015-May-22 17:32N 37°57' E 023°35'0 0.0
2015-May-22 16:31N 37°57' E 023°35'0 0.0
2015-May-22 15:31N 37°57' E 023°35'0 0.0
2015-May-22 14:32N 37°57' E 023°35'0 0.0
2015-May-22 13:31N 37°57' E 023°35'0 0.0
2015-May-22 12:32N 37°57' E 023°35'0 0.0
2015-May-22 11:31N 37°57' E 023°35'0 0.0
2015-May-22 10:28N 37°57' E 023°35'0 0.0
2015-May-22 09:31N 37°57' E 023°35'0 0.0
2015-May-22 08:31N 37°57' E 023°35'0 0.0
2015-May-22 07:31N 37°57' E 023°35'0 0.0
2015-May-22 06:31N 37°57' E 023°35'0 0.0
2015-May-22 05:28N 37°57' E 023°35'0 0.0
2015-May-22 04:31N 37°57' E 023°35'0 0.0
2015-May-22 03:31N 37°57' E 023°35'0 0.0
2015-May-22 02:31N 37°57' E 023°35'0 0.0
2015-May-22 01:31N 37°57' E 023°35'0 0.0
2015-May-22 00:31N 37°57' E 023°35'0 0.0
2015-May-21 23:31N 37°57' E 023°35'2 1.7
2015-May-21 22:33N 37°56' E 023°35'5 4.7
2015-May-21 21:33N 37°52' E 023°39'7 7.2
2015-May-21 20:33N 37°46' E 023°43'1010.3
2015-May-21 19:33N 37°38' E 023°51'1212.2
2015-May-21 18:32N 37°36' E 024°07'1913.7
2015-May-21 17:09N 37°49' E 024°25'  
2015-May-19 12:16N 39°44' E 023°32'1716.3
2015-May-19 11:12N 39°40' E 023°54'1116.8
2015-May-19 10:32N 39°36' E 024°08'3916.7
2015-May-19 08:13N 39°19' E 024°53'75 1.5
2015-May-17 07:33N 38°48' E 026°20'6211.7
2015-May-17 02:12N 39°45' E 025°48'913.7
2015-May-17 01:32N 39°53' E 025°52'9 0.3
2015-May-15 16:15N 39°59' E 026°01'1014.2
2015-May-15 15:32N 39°51' E 025°52'15817.3
2015-May-15 06:23N 37°36' E 024°07'1518.2
2015-May-15 05:33N 37°37' E 023°48'1717.0
2015-May-15 04:33N 37°52' E 023°37'5 5.0
2015-May-15 03:31N 37°57' E 023°36'0 0.0
2015-May-15 02:34N 37°57' E 023°36'0 0.0
2015-May-15 01:34N 37°57' E 023°36'0 0.0
2015-May-15 00:31N 37°57' E 023°36'0 0.0
2015-May-14 23:34N 37°57' E 023°36'0 0.0
2015-May-14 22:34N 37°57' E 023°36'0 0.0
2015-May-14 21:34N 37°57' E 023°36'0 0.0
2015-May-14 20:31N 37°57' E 023°36'0 0.0
2015-May-14 19:34N 37°57' E 023°36'0 0.0
2015-May-14 18:28N 37°57' E 023°36'0 0.0
2015-May-14 17:34N 37°57' E 023°36'0 0.0
2015-May-14 16:34N 37°57' E 023°36'0 0.0
2015-May-14 15:34N 37°57' E 023°36'0 0.0
2015-May-14 14:28N 37°57' E 023°36'0 0.0
2015-May-14 13:34N 37°57' E 023°36'0 0.0
2015-May-14 12:34N 37°57' E 023°36'0 0.0
2015-May-14 11:34N 37°57' E 023°36'0 0.0
2015-May-14 10:31N 37°57' E 023°36'0 0.0
2015-May-14 09:34N 37°57' E 023°36'0 0.0
2015-May-14 08:31N 37°57' E 023°36'0 0.0
2015-May-14 07:34N 37°57' E 023°36'0 0.0
2015-May-14 06:34N 37°57' E 023°36'0 0.0
2015-May-14 05:33N 37°57' E 023°36'0 0.0
2015-May-14 04:34N 37°57' E 023°36'0 0.0
2015-May-14 03:34N 37°57' E 023°36'0 0.0
2015-May-14 02:27N 37°57' E 023°36'0 0.0
2015-May-14 01:30N 37°57' E 023°36'0 0.0
2015-May-14 00:33N 37°57' E 023°36'0 0.0
2015-May-13 23:34N 37°57' E 023°36'0 0.0
2015-May-13 22:33N 37°57' E 023°36'0 0.0
2015-May-13 21:33N 37°57' E 023°36'2 2.4
2015-May-13 20:33N 37°55' E 023°36'5 4.7
2015-May-13 19:33N 37°53' E 023°30'0 0.1
2015-May-13 18:32N 37°53' E 023°30'0 0.1
2015-May-13 17:32N 37°53' E 023°30'0 0.0
2015-May-13 16:32N 37°53' E 023°30'0 0.0
2015-May-13 15:32N 37°53' E 023°30'0 0.0
2015-May-13 14:32N 37°53' E 023°30'0 0.0
2015-May-13 13:32N 37°53' E 023°30'0 0.0
2015-May-13 12:29N 37°53' E 023°30'0 0.0
2015-May-13 11:32N 37°53' E 023°30'0 0.0
2015-May-13 10:32N 37°53' E 023°30'0 0.0
2015-May-13 09:32N 37°53' E 023°30'0 0.0
2015-May-13 08:32N 37°53' E 023°30'0 0.0
2015-May-13 07:32N 37°53' E 023°30'  
Track history (hours):
 
Tides and Currents Weather Stations Pressure Air Temp Water Temp Dewpoint Dewpoint Depression Visibility Wind Speed Wind Dir Waves Ship Positions

Ital Oriente

Last reported at 2015-May-23 07:06 UTC. Time now 2015-May-23 08:46 UTC.
Position N 37°46' E 024°21'.

Length 222 m; draft 7.5 m.

Type: Cargo ship. MMSI: 636091278.

Date/timePositionNaut miles runAvg speedWind from/ knotsBaromVisibWave heightAir tempDewpointWater temp
2015-May-23 07:06N 37°46' E 024°21'1417.1
2015-May-23 06:18N 37°37' E 024°09'1216.1
2015-May-23 05:33N 37°36' E 023°53'1615.9
2015-May-23 04:34N 37°46' E 023°38'1211.6
2015-May-23 03:34N 37°57' E 023°35'0 0.0
2015-May-23 02:32N 37°57' E 023°35'0 0.0
2015-May-23 01:32N 37°57' E 023°35'0 0.0
2015-May-23 00:32N 37°57' E 023°35'0 0.0
2015-May-22 23:32N 37°57' E 023°35'0 0.0
2015-May-22 22:32N 37°57' E 023°35'0 0.0
2015-May-22 21:29N 37°57' E 023°35'0 0.0
2015-May-22 20:32N 37°57' E 023°35'0 0.0
2015-May-22 19:32N 37°57' E 023°35'0 0.0
2015-May-22 18:32N 37°57' E 023°35'0 0.0
2015-May-22 17:32N 37°57' E 023°35'0 0.0
2015-May-22 16:31N 37°57' E 023°35'0 0.0
2015-May-22 15:31N 37°57' E 023°35'0 0.0
2015-May-22 14:32N 37°57' E 023°35'0 0.0
2015-May-22 13:31N 37°57' E 023°35'0 0.0
2015-May-22 12:32N 37°57' E 023°35'0 0.0
2015-May-22 11:31N 37°57' E 023°35'0 0.0
2015-May-22 10:28N 37°57' E 023°35'0 0.0
2015-May-22 09:31N 37°57' E 023°35'0 0.0
2015-May-22 08:31N 37°57' E 023°35'0 0.0
2015-May-22 07:31N 37°57' E 023°35'0 0.0
2015-May-22 06:31N 37°57' E 023°35'0 0.0
2015-May-22 05:28N 37°57' E 023°35'0 0.0
2015-May-22 04:31N 37°57' E 023°35'0 0.0
2015-May-22 03:31N 37°57' E 023°35'0 0.0
2015-May-22 02:31N 37°57' E 023°35'0 0.0
2015-May-22 01:31N 37°57' E 023°35'0 0.0
2015-May-22 00:31N 37°57' E 023°35'0 0.0
2015-May-21 23:31N 37°57' E 023°35'2 1.7
2015-May-21 22:33N 37°56' E 023°35'5 4.7
2015-May-21 21:33N 37°52' E 023°39'7 7.2
2015-May-21 20:33N 37°46' E 023°43'1010.3
2015-May-21 19:33N 37°38' E 023°51'1212.2
2015-May-21 18:32N 37°36' E 024°07'1913.7
2015-May-21 17:09N 37°49' E 024°25'  
2015-May-19 12:16N 39°44' E 023°32'1716.3
2015-May-19 11:12N 39°40' E 023°54'1116.8
2015-May-19 10:32N 39°36' E 024°08'3916.7
2015-May-19 08:13N 39°19' E 024°53'75 1.5
2015-May-17 07:33N 38°48' E 026°20'6211.7
2015-May-17 02:12N 39°45' E 025°48'913.7
2015-May-17 01:32N 39°53' E 025°52'9 0.3
2015-May-15 16:15N 39°59' E 026°01'1014.2
2015-May-15 15:32N 39°51' E 025°52'15817.3
2015-May-15 06:23N 37°36' E 024°07'1518.2
2015-May-15 05:33N 37°37' E 023°48'1717.0
2015-May-15 04:33N 37°52' E 023°37'5 5.0
2015-May-15 03:31N 37°57' E 023°36'0 0.0
2015-May-15 02:34N 37°57' E 023°36'0 0.0
2015-May-15 01:34N 37°57' E 023°36'0 0.0
2015-May-15 00:31N 37°57' E 023°36'0 0.0
2015-May-14 23:34N 37°57' E 023°36'0 0.0
2015-May-14 22:34N 37°57' E 023°36'0 0.0
2015-May-14 21:34N 37°57' E 023°36'0 0.0
2015-May-14 20:31N 37°57' E 023°36'0 0.0
2015-May-14 19:34N 37°57' E 023°36'0 0.0
2015-May-14 18:28N 37°57' E 023°36'0 0.0
2015-May-14 17:34N 37°57' E 023°36'0 0.0
2015-May-14 16:34N 37°57' E 023°36'0 0.0
2015-May-14 15:34N 37°57' E 023°36'0 0.0
2015-May-14 14:28N 37°57' E 023°36'0 0.0
2015-May-14 13:34N 37°57' E 023°36'0 0.0
2015-May-14 12:34N 37°57' E 023°36'0 0.0
2015-May-14 11:34N 37°57' E 023°36'0 0.0
2015-May-14 10:31N 37°57' E 023°36'0 0.0
2015-May-14 09:34N 37°57' E 023°36'0 0.0
2015-May-14 08:31N 37°57' E 023°36'0 0.0
2015-May-14 07:34N 37°57' E 023°36'0 0.0
2015-May-14 06:34N 37°57' E 023°36'0 0.0
2015-May-14 05:33N 37°57' E 023°36'0 0.0
2015-May-14 04:34N 37°57' E 023°36'0 0.0
2015-May-14 03:34N 37°57' E 023°36'0 0.0
2015-May-14 02:27N 37°57' E 023°36'0 0.0
2015-May-14 01:30N 37°57' E 023°36'0 0.0
2015-May-14 00:33N 37°57' E 023°36'0 0.0
2015-May-13 23:34N 37°57' E 023°36'0 0.0
2015-May-13 22:33N 37°57' E 023°36'0 0.0
2015-May-13 21:33N 37°57' E 023°36'2 2.4
2015-May-13 20:33N 37°55' E 023°36'5 4.7
2015-May-13 19:33N 37°53' E 023°30'0 0.1
2015-May-13 18:32N 37°53' E 023°30'0 0.1
2015-May-13 17:32N 37°53' E 023°30'0 0.0
2015-May-13 16:32N 37°53' E 023°30'0 0.0
2015-May-13 15:32N 37°53' E 023°30'0 0.0
2015-May-13 14:32N 37°53' E 023°30'0 0.0
2015-May-13 13:32N 37°53' E 023°30'0 0.0
2015-May-13 12:29N 37°53' E 023°30'0 0.0
2015-May-13 11:32N 37°53' E 023°30'0 0.0
2015-May-13 10:32N 37°53' E 023°30'0 0.0
2015-May-13 09:32N 37°53' E 023°30'0 0.0
2015-May-13 08:32N 37°53' E 023°30'0 0.0
2015-May-13 07:32N 37°53' E 023°30'  

Dump ship's entire track history